Time;durP1;ratioP1;P1;durP2;ratioP2;P2;SDS_P1;SDS_P2;PMS_P1;PMS_P2;Temp;Humidity;BMP_temperature;BMP_pressure;BME280_temperature;BME280_humidity;BME280_pressure;Samples;Min_cycle;Max_cycle;Signal;HPM_P1;HPM_P2
2023/12/12 00:01:34;;;;;;;11.90;11.20;;;8.60;32.00;;;;;;4867141;29;20556;-53
2023/12/12 00:04:00;;;;;;;11.03;10.50;;;8.60;99.90;;;;;;4866580;29;20433;-53
2023/12/12 00:06:26;;;;;;;12.60;11.87;;;8.60;99.90;;;;;;4865954;29;20837;-51
2023/12/12 00:08:51;;;;;;;11.77;11.10;;;8.50;99.90;;;;;;4864539;29;20196;-52
2023/12/12 00:11:17;;;;;;;12.13;11.53;;;8.50;1.00;;;;;;4866533;29;20812;-52
2023/12/12 00:13:42;;;;;;;11.73;11.23;;;8.50;53.60;;;;;;4866050;29;20236;-54
2023/12/12 00:16:11;;;;;;;12.33;11.73;;;8.50;99.90;;;;;;4866047;29;20251;-54
2023/12/12 00:18:37;;;;;;;12.50;11.80;;;8.60;99.90;;;;;;4865959;29;20184;-50
2023/12/12 00:21:03;;;;;;;12.30;11.50;;;8.60;99.90;;;;;;4866458;29;20424;-55
2023/12/12 00:23:28;;;;;;;12.00;11.40;;;8.50;99.90;;;;;;4866854;29;20184;-54
2023/12/12 00:25:54;;;;;;;11.70;11.20;;;8.70;92.70;;;;;;4865035;29;20460;-53
2023/12/12 00:28:20;;;;;;;12.40;11.60;;;8.70;58.70;;;;;;4867347;29;20213;-53
2023/12/12 00:30:45;;;;;;;11.77;11.27;;;8.80;1.00;;;;;;4866135;29;20278;-51
2023/12/12 00:33:11;;;;;;;12.17;11.50;;;8.80;1.00;;;;;;4866860;29;20617;-43
2023/12/12 00:35:36;;;;;;;12.17;11.47;;;8.80;99.90;;;;;;4866772;29;20187;-47
2023/12/12 00:38:02;;;;;;;13.07;12.13;;;8.90;99.90;;;;;;4866264;29;20203;-43
2023/12/12 00:40:27;;;;;;;12.07;11.47;;;8.90;99.90;;;;;;4865255;29;20179;-44
2023/12/12 00:42:53;;;;;;;12.70;11.90;;;9.00;99.90;;;;;;4865140;29;20199;-46
2023/12/12 00:45:19;;;;;;;12.83;12.23;;;9.00;99.90;;;;;;4865846;29;20195;-46
2023/12/12 00:47:44;;;;;;;12.60;11.90;;;9.00;99.90;;;;;;4865984;29;20286;-42
2023/12/12 00:50:10;;;;;;;12.43;11.83;;;8.90;99.90;;;;;;4865242;29;20202;-45
2023/12/12 00:52:35;;;;;;;12.30;11.70;;;9.00;99.90;;;;;;4865215;29;20665;-42
2023/12/12 00:55:01;;;;;;;12.13;11.63;;;9.00;99.90;;;;;;4865577;29;20565;-42
2023/12/12 00:57:27;;;;;;;12.60;11.90;;;8.90;99.90;;;;;;4865960;29;20262;-47
2023/12/12 00:59:54;;;;;;;11.83;11.23;;;9.00;99.90;;;;;;4865207;29;20505;-44
2023/12/12 01:02:26;;;;;;;12.27;11.70;;;8.90;99.90;;;;;;4866692;29;20196;-45
2023/12/12 01:04:52;;;;;;;12.13;11.53;;;8.90;99.90;;;;;;4865084;29;20463;-45
2023/12/12 01:07:18;;;;;;;11.77;11.27;;;8.80;99.90;;;;;;4865559;29;20508;-43
2023/12/12 01:09:44;;;;;;;12.20;11.60;;;8.70;99.90;;;;;;4864616;29;20416;-45
2023/12/12 01:12:10;;;;;;;12.40;11.80;;;8.70;99.90;;;;;;4865815;29;20508;-44
2023/12/12 01:14:36;;;;;;;12.10;11.50;;;8.70;99.90;;;;;;4865699;29;20425;-46
2023/12/12 01:17:03;;;;;;;12.30;11.70;;;8.60;1.00;;;;;;4865926;29;20206;-45
2023/12/12 01:19:30;;;;;;;11.10;10.60;;;8.60;1.00;;;;;;4866852;29;20188;-44
2023/12/12 01:21:55;;;;;;;12.03;11.37;;;8.50;1.00;;;;;;4866362;29;20440;-43
2023/12/12 01:24:21;;;;;;;11.70;11.10;;;8.40;1.00;;;;;;4866197;29;20428;-47
2023/12/12 01:26:47;;;;;;;11.83;11.23;;;8.30;99.90;;;;;;4865796;29;20216;-44
2023/12/12 01:29:16;;;;;;;12.40;11.60;;;8.20;1.00;;;;;;4864840;29;20239;-44
2023/12/12 01:31:42;;;;;;;12.43;11.70;;;8.20;12.70;;;;;;4865945;29;20179;-44
2023/12/12 01:34:08;;;;;;;12.63;11.73;;;8.10;99.90;;;;;;4865983;29;20429;-48
2023/12/12 01:36:34;;;;;;;11.87;11.30;;;8.20;1.00;;;;;;4865681;29;20923;-50
2023/12/12 01:38:59;;;;;;;11.77;11.27;;;8.20;1.00;;;;;;4865965;29;20252;-53
2023/12/12 01:41:25;;;;;;;12.23;11.63;;;8.10;99.90;;;;;;4866081;29;20191;-54
2023/12/12 01:43:51;;;;;;;12.60;11.90;;;8.20;99.90;;;;;;4866403;29;20588;-50
2023/12/12 01:46:17;;;;;;;12.80;12.10;;;8.10;99.90;;;;;;4866114;29;20184;-54
2023/12/12 01:48:43;;;;;;;12.27;11.67;;;8.00;1.00;;;;;;4866276;29;20191;-51
2023/12/12 01:51:10;;;;;;;12.50;11.80;;;8.00;1.00;;;;;;4866387;29;20507;-54
2023/12/12 01:53:41;;;;;;;12.07;11.47;;;8.00;1.00;;;;;;4868230;29;20262;-51
2023/12/12 01:56:07;;;;;;;12.53;11.93;;;8.00;1.00;;;;;;4868042;29;20431;-53
2023/12/12 01:58:34;;;;;;;11.30;10.70;;;7.90;99.90;;;;;;4882331;29;20531;-52
2023/12/12 02:01:00;;;;;;;12.03;11.43;;;8.00;99.90;;;;;;4867117;29;20444;-52
2023/12/12 02:03:27;;;;;;;12.03;11.40;;;7.90;99.90;;;;;;4874460;29;20434;-52
2023/12/12 02:05:59;;;;;;;11.97;11.23;;;7.90;99.90;;;;;;4868767;29;20893;-53
2023/12/12 02:08:25;;;;;;;11.73;11.23;;;7.90;1.00;;;;;;4867704;29;20618;-51
2023/12/12 02:10:51;;;;;;;11.40;10.90;;;7.80;1.00;;;;;;4867855;29;20791;-53
2023/12/12 02:13:17;;;;;;;11.70;11.20;;;7.80;1.00;;;;;;4868001;29;20421;-53
2023/12/12 02:15:43;;;;;;;12.43;11.83;;;7.70;1.00;;;;;;4868886;29;20421;-51
2023/12/12 02:18:09;;;;;;;11.90;11.40;;;7.70;23.50;;;;;;4865936;29;20596;-54
2023/12/12 02:20:34;;;;;;;12.17;11.57;;;7.70;99.90;;;;;;4868073;29;20435;-55
2023/12/12 02:23:00;;;;;;;12.20;11.60;;;7.70;99.90;;;;;;4866552;29;20196;-52
2023/12/12 02:25:26;;;;;;;12.27;11.67;;;7.60;1.00;;;;;;4868988;29;20199;-54
2023/12/12 02:27:52;;;;;;;12.30;11.70;;;7.60;1.00;;;;;;4882403;29;20729;-53
2023/12/12 02:30:18;;;;;;;12.30;11.70;;;7.60;1.00;;;;;;4867058;29;20444;-52
2023/12/12 02:32:44;;;;;;;12.17;11.57;;;7.60;1.00;;;;;;4868217;29;20471;-53
2023/12/12 02:35:10;;;;;;;11.60;11.00;;;7.70;1.00;;;;;;4868385;29;20433;-54
2023/12/12 02:37:35;;;;;;;13.13;12.50;;;7.60;1.00;;;;;;4873193;29;20207;-54
2023/12/12 02:40:01;;;;;;;12.17;11.57;;;7.70;96.80;;;;;;4867874;29;20199;-53
2023/12/12 02:42:26;;;;;;;12.30;11.70;;;7.60;99.90;;;;;;4867414;29;20196;-55
2023/12/12 02:44:52;;;;;;;11.93;11.33;;;7.70;99.90;;;;;;4868395;29;20322;-53
2023/12/12 02:47:17;;;;;;;12.33;11.73;;;7.70;99.90;;;;;;4867477;29;20211;-48
2023/12/12 02:49:43;;;;;;;11.87;11.30;;;7.70;99.90;;;;;;4867758;29;20239;-52
2023/12/12 02:52:09;;;;;;;12.40;11.60;;;7.70;99.90;;;;;;4868196;29;20226;-52
2023/12/12 02:54:34;;;;;;;11.77;11.27;;;7.70;99.90;;;;;;4866960;29;20208;-53
2023/12/12 02:57:00;;;;;;;11.57;10.87;;;7.80;99.90;;;;;;4866969;29;20198;-54
2023/12/12 02:59:26;;;;;;;11.77;11.10;;;7.90;99.90;;;;;;4867744;29;20195;-54
2023/12/12 03:01:51;;;;;;;12.03;11.43;;;7.90;99.90;;;;;;4867374;29;20196;-54
2023/12/12 03:04:17;;;;;;;11.70;11.20;;;8.00;99.90;;;;;;4867908;29;20746;-55
2023/12/12 03:06:43;;;;;;;11.77;11.27;;;8.10;99.90;;;;;;4867906;29;20354;-55
2023/12/12 03:09:08;;;;;;;11.67;11.17;;;8.10;84.20;;;;;;4867470;29;20188;-54
2023/12/12 03:11:34;;;;;;;12.00;11.30;;;8.10;93.50;;;;;;4866166;29;20203;-54
2023/12/12 03:14:00;;;;;;;11.50;10.97;;;8.10;99.90;;;;;;4867786;29;20251;-53
2023/12/12 03:16:25;;;;;;;11.57;11.07;;;8.00;99.90;;;;;;4867530;29;20218;-54
2023/12/12 03:18:51;;;;;;;11.07;10.67;;;8.10;99.90;;;;;;4867903;29;20432;-51
2023/12/12 03:21:17;;;;;;;11.73;11.20;;;8.10;99.90;;;;;;4867345;29;20202;-55
2023/12/12 03:23:43;;;;;;;11.40;10.90;;;8.10;99.90;;;;;;4867467;29;20433;-54
2023/12/12 03:26:11;;;;;;;11.50;11.00;;;8.10;99.90;;;;;;4866043;29;20202;-54
2023/12/12 03:28:36;;;;;;;10.83;10.33;;;8.20;99.90;;;;;;4866310;29;20215;-53
2023/12/12 03:31:03;;;;;;;11.47;10.97;;;8.30;99.90;;;;;;4867770;29;20808;-53
2023/12/12 03:33:29;;;;;;;11.47;10.97;;;8.30;99.90;;;;;;4867639;29;20580;-55
2023/12/12 03:35:54;;;;;;;11.60;10.90;;;8.30;99.90;;;;;;4867265;29;20416;-52
2023/12/12 03:38:20;;;;;;;12.10;11.40;;;8.30;99.90;;;;;;4867104;29;20200;-47
2023/12/12 03:40:46;;;;;;;11.33;10.83;;;8.30;99.90;;;;;;4867979;29;20199;-54
2023/12/12 03:43:11;;;;;;;11.33;10.83;;;8.30;99.90;;;;;;4866224;29;20227;-55
2023/12/12 03:45:37;;;;;;;11.60;11.10;;;8.30;99.90;;;;;;4867342;29;20193;-50
2023/12/12 03:48:03;;;;;;;11.70;11.20;;;8.40;99.90;;;;;;4867153;29;20322;-43
2023/12/12 03:50:28;;;;;;;11.80;11.30;;;8.40;99.90;;;;;;4867608;29;20187;-43
2023/12/12 03:52:54;;;;;;;11.50;11.00;;;8.40;99.90;;;;;;4868917;29;20215;-43
2023/12/12 03:55:19;;;;;;;11.53;11.03;;;8.40;99.90;;;;;;4867607;29;20574;-45
2023/12/12 03:57:45;;;;;;;11.07;10.57;;;8.40;99.90;;;;;;4865753;29;20199;-44
2023/12/12 04:00:11;;;;;;;11.40;10.90;;;8.40;99.90;;;;;;4866039;29;20210;-45
2023/12/12 04:02:37;;;;;;;11.03;10.50;;;8.50;99.90;;;;;;4866462;29;20199;-43
2023/12/12 04:05:03;;;;;;;11.70;11.10;;;8.50;99.90;;;;;;4874202;29;20440;-44
2023/12/12 04:07:29;;;;;;;11.73;11.17;;;8.40;99.90;;;;;;4866962;29;20223;-44
2023/12/12 04:09:55;;;;;;;11.67;11.10;;;8.40;99.90;;;;;;4866156;29;21101;-45
2023/12/12 04:12:20;;;;;;;11.30;10.80;;;8.40;99.90;;;;;;4865547;29;20488;-45
2023/12/12 04:14:46;;;;;;;11.80;11.20;;;8.40;99.90;;;;;;4864683;29;20260;-44
2023/12/12 04:17:12;;;;;;;12.33;11.47;;;8.40;99.90;;;;;;4866150;29;20196;-44
2023/12/12 04:19:38;;;;;;;12.10;11.50;;;8.40;99.90;;;;;;4866111;29;20195;-44
2023/12/12 04:22:03;;;;;;;12.10;11.60;;;8.40;99.90;;;;;;4866726;29;20491;-44
2023/12/12 04:24:29;;;;;;;12.17;11.57;;;8.40;99.90;;;;;;4865988;29;20223;-43
2023/12/12 04:26:55;;;;;;;11.63;11.03;;;8.40;1.00;;;;;;4865953;29;21328;-46
2023/12/12 04:29:21;;;;;;;12.33;11.73;;;8.30;1.00;;;;;;4867489;29;20209;-44
2023/12/12 04:31:50;;;;;;;11.53;10.93;;;8.30;1.00;;;;;;4865813;29;20846;-46
2023/12/12 04:34:15;;;;;;;12.37;11.57;;;8.30;1.00;;;;;;4866868;29;20310;-46
2023/12/12 04:36:41;;;;;;;11.27;10.77;;;8.30;1.00;;;;;;4866351;29;20777;-46
2023/12/12 04:39:14;;;;;;;11.20;10.70;;;8.30;1.00;;;;;;4866553;29;20195;-44
2023/12/12 04:41:40;;;;;;;11.17;10.67;;;8.30;1.00;;;;;;4865484;29;20761;-47
2023/12/12 04:44:07;;;;;;;11.40;10.80;;;8.30;1.00;;;;;;4866416;29;20476;-44
2023/12/12 04:46:32;;;;;;;10.67;10.17;;;8.30;1.00;;;;;;4865641;29;20226;-46
2023/12/12 04:49:00;;;;;;;12.13;11.53;;;8.30;1.00;;;;;;4866331;29;20433;-44
2023/12/12 04:51:26;;;;;;;11.63;10.93;;;8.30;1.00;;;;;;4866321;29;20424;-45
2023/12/12 04:53:51;;;;;;;11.63;10.77;;;8.40;1.00;;;;;;4866949;29;21295;-44
2023/12/12 04:56:17;;;;;;;11.37;10.77;;;8.40;99.90;;;;;;4865567;29;20304;-44
2023/12/12 04:58:43;;;;;;;11.13;10.63;;;8.50;99.90;;;;;;4865874;29;20259;-45
2023/12/12 05:01:08;;;;;;;11.23;10.43;;;8.50;99.90;;;;;;4866059;29;20192;-44
2023/12/12 05:03:34;;;;;;;13.00;12.30;;;8.50;99.90;;;;;;4867002;29;20208;-44
2023/12/12 05:06:00;;;;;;;12.27;11.50;;;8.50;99.90;;;;;;4864958;29;20266;-44
2023/12/12 05:08:26;;;;;;;11.07;10.57;;;8.50;99.90;;;;;;4865369;29;20624;-45
2023/12/12 05:10:51;;;;;;;11.70;11.00;;;8.40;99.90;;;;;;4866273;29;20443;-43
2023/12/12 05:13:18;;;;;;;11.37;10.77;;;8.40;99.90;;;;;;4865427;29;20199;-47
2023/12/12 05:15:43;;;;;;;11.93;11.33;;;8.40;99.90;;;;;;4865090;29;20229;-44
2023/12/12 05:18:09;;;;;;;14.23;13.43;;;8.40;1.00;;;;;;4864382;29;20440;-45
2023/12/12 05:20:35;;;;;;;12.20;11.60;;;8.40;1.00;;;;;;4865503;29;20484;-43
2023/12/12 05:23:01;;;;;;;12.03;11.43;;;8.40;1.00;;;;;;4866507;29;20200;-44
2023/12/12 05:25:26;;;;;;;11.70;11.10;;;8.40;1.00;;;;;;4865981;29;20225;-50
2023/12/12 05:27:52;;;;;;;11.10;10.60;;;8.40;1.00;;;;;;4869446;29;20692;-45
2023/12/12 05:30:18;;;;;;;11.57;10.93;;;8.40;1.00;;;;;;4868266;29;20282;-44
2023/12/12 05:32:44;;;;;;;10.83;10.33;;;8.40;1.00;;;;;;4869588;29;20241;-46
2023/12/12 05:35:09;;;;;;;10.70;10.20;;;8.30;1.00;;;;;;4868468;29;20314;-44
2023/12/12 05:37:36;;;;;;;11.00;10.50;;;8.30;1.00;;;;;;4869807;29;20459;-43
2023/12/12 05:40:04;;;;;;;11.57;10.97;;;8.30;1.00;;;;;;4869092;29;20203;-46
2023/12/12 05:42:30;;;;;;;11.27;10.77;;;8.20;1.00;;;;;;4866736;29;20472;-43
2023/12/12 05:44:56;;;;;;;12.07;11.47;;;8.30;1.00;;;;;;4866700;29;21121;-46
2023/12/12 05:47:21;;;;;;;11.43;10.90;;;8.30;1.00;;;;;;4868996;29;20663;-44
2023/12/12 05:49:47;;;;;;;13.70;12.63;;;8.30;1.00;;;;;;4869574;29;20195;-50
2023/12/12 05:52:13;;;;;;;15.17;14.03;;;8.30;1.00;;;;;;4869363;29;20195;-44
2023/12/12 05:54:38;;;;;;;15.00;13.80;;;8.20;1.00;;;;;;4869266;29;20196;-45
2023/12/12 05:57:04;;;;;;;11.63;11.03;;;8.20;1.00;;;;;;4869574;29;20658;-45
2023/12/12 05:59:31;;;;;;;13.10;12.30;;;8.20;1.00;;;;;;4874460;29;20723;-43
2023/12/12 06:01:56;;;;;;;13.07;12.37;;;8.10;1.00;;;;;;4867746;29;20203;-44
2023/12/12 06:04:22;;;;;;;11.60;10.97;;;8.10;1.00;;;;;;4869544;29;20433;-46
2023/12/12 06:06:47;;;;;;;12.30;11.60;;;8.10;1.00;;;;;;4868364;29;20247;-46
2023/12/12 06:09:14;;;;;;;11.97;11.37;;;8.10;1.00;;;;;;4869662;29;20188;-45
2023/12/12 06:11:41;;;;;;;11.73;11.03;;;8.00;1.00;;;;;;4868709;29;20200;-45
2023/12/12 06:14:07;;;;;;;12.23;11.53;;;8.00;1.00;;;;;;4868477;29;20424;-47
2023/12/12 06:16:33;;;;;;;12.83;11.93;;;8.00;1.00;;;;;;4868956;29;20575;-43
2023/12/12 06:18:59;;;;;;;12.13;11.30;;;8.00;1.00;;;;;;4864279;29;20196;-43
2023/12/12 06:21:25;;;;;;;12.17;11.47;;;8.00;1.00;;;;;;4859019;29;20470;-43
2023/12/12 06:23:51;;;;;;;12.30;11.57;;;8.00;1.00;;;;;;4867330;29;20472;-47
2023/12/12 06:26:16;;;;;;;11.70;11.10;;;8.10;1.00;;;;;;4867114;29;20279;-44
2023/12/12 06:28:42;;;;;;;12.00;11.30;;;8.10;1.00;;;;;;4867733;29;20814;-44
2023/12/12 06:31:08;;;;;;;12.10;11.30;;;8.10;1.00;;;;;;4873148;29;20272;-44
2023/12/12 06:33:34;;;;;;;11.50;10.83;;;8.20;1.00;;;;;;4881144;29;20204;-45
2023/12/12 06:35:59;;;;;;;12.27;11.57;;;8.20;1.00;;;;;;4867293;29;20444;-52
2023/12/12 06:38:25;;;;;;;12.40;11.60;;;8.10;1.00;;;;;;4866671;29;20444;-53
2023/12/12 06:40:51;;;;;;;12.63;11.83;;;8.10;1.00;;;;;;4868218;29;20287;-52
2023/12/12 06:43:17;;;;;;;12.10;11.47;;;8.10;1.00;;;;;;4867778;29;20484;-52
2023/12/12 06:45:43;;;;;;;12.70;11.97;;;8.10;1.00;;;;;;4868068;29;20553;-50
2023/12/12 06:48:08;;;;;;;12.47;11.70;;;8.10;1.00;;;;;;4868236;29;20476;-54
2023/12/12 06:50:34;;;;;;;12.80;12.10;;;8.10;1.00;;;;;;4881792;29;20444;-51
2023/12/12 06:52:59;;;;;;;12.13;11.43;;;8.10;1.00;;;;;;4867567;29;20650;-50
2023/12/12 06:55:25;;;;;;;11.90;11.20;;;8.10;1.00;;;;;;4865314;29;20191;-54
2023/12/12 06:57:51;;;;;;;12.30;11.50;;;8.00;1.00;;;;;;4867309;29;20192;-52
2023/12/12 07:00:17;;;;;;;14.67;13.57;;;8.00;1.00;;;;;;4867377;29;20499;-51
2023/12/12 07:02:42;;;;;;;14.43;13.43;;;8.00;1.00;;;;;;4866791;29;20962;-49
2023/12/12 07:05:08;;;;;;;15.20;14.13;;;8.00;1.00;;;;;;4866761;29;20539;-53
2023/12/12 07:07:34;;;;;;;15.60;14.50;;;8.00;1.00;;;;;;4865464;29;20211;-53
2023/12/12 07:10:02;;;;;;;25.90;22.17;;;8.00;1.00;;;;;;4866621;29;20506;-51
2023/12/12 07:12:28;;;;;;;19.20;17.60;;;8.00;1.00;;;;;;4867283;29;20439;-52
2023/12/12 07:14:54;;;;;;;14.40;13.40;;;8.00;1.00;;;;;;4867507;29;20862;-51
2023/12/12 07:17:20;;;;;;;16.20;14.90;;;7.90;1.00;;;;;;4867511;29;20183;-55
2023/12/12 07:19:45;;;;;;;16.00;14.80;;;8.00;1.00;;;;;;4867183;29;20433;-55
2023/12/12 07:22:11;;;;;;;13.10;12.20;;;8.00;1.00;;;;;;4867095;29;20608;-53
2023/12/12 07:24:40;;;;;;;18.30;17.00;;;8.00;1.00;;;;;;4862665;29;20206;-53
2023/12/12 07:27:06;;;;;;;19.93;18.17;;;8.10;1.00;;;;;;4867189;29;20750;-52
2023/12/12 07:29:31;;;;;;;15.80;14.60;;;8.10;1.00;;;;;;4867136;29;20519;-50
2023/12/12 07:31:58;;;;;;;14.17;13.27;;;8.10;1.00;;;;;;4867148;29;20184;-44
2023/12/12 07:34:23;;;;;;;12.90;12.00;;;8.10;1.00;;;;;;4866976;29;20184;-44
2023/12/12 07:36:49;;;;;;;14.47;13.40;;;8.10;1.00;;;;;;4867151;29;20508;-44
2023/12/12 07:39:15;;;;;;;14.23;13.33;;;8.10;1.00;;;;;;4866866;29;20188;-46
2023/12/12 07:41:41;;;;;;;13.70;12.80;;;8.10;1.00;;;;;;4866784;29;20516;-51
2023/12/12 07:44:06;;;;;;;12.87;11.87;;;8.10;1.00;;;;;;4866759;29;20964;-53
2023/12/12 07:46:39;;;;;;;12.53;11.63;;;8.10;1.00;;;;;;4866772;29;20680;-53
2023/12/12 07:49:07;;;;;;;13.13;12.13;;;8.10;1.00;;;;;;4866089;29;20220;-52
2023/12/12 07:51:33;;;;;;;13.13;12.23;;;8.10;1.00;;;;;;4866805;29;20456;-50
2023/12/12 07:54:01;;;;;;;14.20;13.20;;;8.10;1.00;;;;;;4869259;29;20516;-50
2023/12/12 07:56:27;;;;;;;14.50;13.23;;;8.20;1.00;;;;;;4864730;29;20188;-53
2023/12/12 07:58:52;;;;;;;14.33;13.40;;;8.20;1.00;;;;;;4866445;29;20447;-54
2023/12/12 08:01:18;;;;;;;15.27;14.10;;;8.20;1.00;;;;;;4866379;29;20198;-52
2023/12/12 08:03:44;;;;;;;14.90;13.83;;;8.20;1.00;;;;;;4866587;29;20603;-52
2023/12/12 08:06:10;;;;;;;14.30;13.20;;;8.20;1.00;;;;;;4866433;29;20510;-50
2023/12/12 08:08:36;;;;;;;14.97;13.50;;;8.20;1.00;;;;;;4866195;29;20208;-51
2023/12/12 08:11:02;;;;;;;14.70;13.50;;;8.20;1.00;;;;;;4866464;29;20176;-44
2023/12/12 08:13:27;;;;;;;14.30;13.30;;;8.30;1.00;;;;;;4874927;29;20444;-47
2023/12/12 08:15:53;;;;;;;13.80;12.90;;;8.30;1.00;;;;;;4866522;29;20594;-43
2023/12/12 08:18:19;;;;;;;13.37;12.37;;;8.30;1.00;;;;;;4866144;29;20184;-43
2023/12/12 08:20:44;;;;;;;12.93;12.13;;;8.30;1.00;;;;;;4866448;29;20226;-45
2023/12/12 08:23:10;;;;;;;13.00;12.10;;;8.40;1.00;;;;;;4866185;29;21041;-44
2023/12/12 08:25:36;;;;;;;13.30;12.50;;;8.40;1.00;;;;;;4866327;29;20200;-46
2023/12/12 08:28:03;;;;;;;12.10;11.30;;;8.50;1.00;;;;;;4866002;29;20223;-44
2023/12/12 08:30:28;;;;;;;12.03;11.30;;;8.50;1.00;;;;;;4866266;29;20290;-51
2023/12/12 08:32:54;;;;;;;13.07;12.07;;;8.50;1.00;;;;;;4866534;29;20788;-51
2023/12/12 08:35:20;;;;;;;12.10;11.40;;;8.50;1.00;;;;;;4865627;29;20243;-54
2023/12/12 08:37:45;;;;;;;11.83;11.23;;;8.60;99.90;;;;;;4865506;29;20195;-54
2023/12/12 08:40:11;;;;;;;11.90;11.20;;;8.70;99.60;;;;;;4866605;29;20782;-53
2023/12/12 08:42:39;;;;;;;11.53;10.90;;;8.70;1.00;;;;;;4866091;29;20509;-53
2023/12/12 08:45:05;;;;;;;12.13;11.50;;;8.70;1.00;;;;;;4865925;29;20235;-51
2023/12/12 08:47:31;;;;;;;11.20;10.60;;;8.70;1.00;;;;;;4866070;29;20515;-53
2023/12/12 08:49:56;;;;;;;11.27;10.57;;;8.70;1.00;;;;;;4865885;29;20433;-51
2023/12/12 08:52:22;;;;;;;11.40;10.67;;;8.70;1.00;;;;;;4861590;29;20261;-50
2023/12/12 08:54:48;;;;;;;11.77;11.10;;;8.70;1.00;;;;;;4865524;29;20312;-53
2023/12/12 08:57:17;;;;;;;11.83;11.23;;;8.80;1.00;;;;;;4865559;29;21144;-52
2023/12/12 08:59:43;;;;;;;12.27;11.37;;;8.90;99.90;;;;;;4865971;29;20224;-53
2023/12/12 09:02:09;;;;;;;10.77;10.17;;;8.90;99.90;;;;;;4868608;29;20456;-52
2023/12/12 09:04:36;;;;;;;12.00;11.20;;;8.90;99.90;;;;;;4869566;29;20418;-50
2023/12/12 09:07:01;;;;;;;12.03;11.23;;;9.00;99.90;;;;;;4869577;29;20211;-53
2023/12/12 09:09:27;;;;;;;11.13;10.43;;;9.00;1.00;;;;;;4869495;29;20879;-51
2023/12/12 09:11:53;;;;;;;11.90;11.30;;;8.90;1.00;;;;;;4867342;29;20196;-52
2023/12/12 09:14:19;;;;;;;13.00;11.90;;;8.90;1.00;;;;;;4869993;29;20448;-54
2023/12/12 09:16:45;;;;;;;11.80;11.00;;;8.90;1.00;;;;;;4869505;29;20466;-51
2023/12/12 09:19:14;;;;;;;12.20;11.47;;;8.90;1.00;;;;;;4870023;29;20424;-49
2023/12/12 09:21:40;;;;;;;11.60;10.90;;;8.90;1.00;;;;;;4868550;29;20699;-52
2023/12/12 09:24:06;;;;;;;10.50;9.90;;;9.00;1.00;;;;;;4869325;29;20793;-54
2023/12/12 09:26:32;;;;;;;11.67;10.87;;;9.00;99.90;;;;;;4869288;29;20428;-51
2023/12/12 09:28:57;;;;;;;11.60;11.00;;;9.00;99.90;;;;;;4870010;29;20264;-50
2023/12/12 09:31:27;;;;;;;11.63;10.93;;;9.00;1.00;;;;;;4868978;29;20666;-49
2023/12/12 09:33:54;;;;;;;11.80;11.20;;;9.10;1.00;;;;;;4869243;29;20666;-52
2023/12/12 09:36:19;;;;;;;12.20;11.30;;;9.20;99.90;;;;;;4869479;29;20487;-49
2023/12/12 09:38:45;;;;;;;11.73;10.93;;;9.10;1.00;;;;;;4869376;29;20428;-54
2023/12/12 09:41:24;;;;;;;12.40;11.70;;;9.10;99.90;;;;;;4868927;29;20188;-51
2023/12/12 09:43:51;;;;;;;13.10;12.20;;;9.10;12.50;;;;;;4869076;29;20475;-49
2023/12/12 09:46:17;;;;;;;12.40;11.70;;;8.90;56.80;;;;;;4869013;29;20428;-54
2023/12/12 09:48:48;;;;;;;13.20;12.40;;;8.90;99.90;;;;;;4868646;29;20563;-49
2023/12/12 09:51:14;;;;;;;12.60;11.90;;;8.80;99.90;;;;;;4868032;29;20983;-51
2023/12/12 09:53:46;;;;;;;11.50;10.80;;;8.80;99.90;;;;;;4868717;29;20765;-49
2023/12/12 09:56:14;;;;;;;13.00;12.20;;;8.80;1.00;;;;;;4868620;29;20428;-44
2023/12/12 09:58:40;;;;;;;12.63;11.83;;;8.80;1.00;;;;;;4868608;29;20893;-46
2023/12/12 10:01:08;;;;;;;13.57;12.77;;;8.70;1.00;;;;;;4868904;29;20429;-44
2023/12/12 10:03:35;;;;;;;13.00;12.20;;;8.70;1.00;;;;;;4879410;29;20287;-43
2023/12/12 10:06:06;;;;;;;13.87;12.83;;;8.80;1.00;;;;;;4877195;29;20554;-44
2023/12/12 10:08:31;;;;;;;12.97;12.13;;;8.70;1.00;;;;;;4868727;29;20818;-44
2023/12/12 10:10:57;;;;;;;13.10;12.10;;;8.70;1.00;;;;;;4868443;29;20683;-46
2023/12/12 10:13:22;;;;;;;13.90;12.77;;;8.80;1.00;;;;;;4867660;29;20750;-47
2023/12/12 10:15:48;;;;;;;12.90;12.10;;;8.80;1.00;;;;;;4868355;29;20452;-47
2023/12/12 10:18:14;;;;;;;13.40;12.60;;;8.90;1.00;;;;;;4868248;29;20202;-43
2023/12/12 10:20:40;;;;;;;13.90;12.90;;;8.90;1.00;;;;;;4867989;29;20180;-45
2023/12/12 10:23:06;;;;;;;14.03;13.23;;;8.90;1.00;;;;;;4868299;29;20432;-44
2023/12/12 10:25:33;;;;;;;14.70;13.77;;;9.00;1.00;;;;;;4868151;29;20867;-47
2023/12/12 10:27:59;;;;;;;14.40;13.50;;;9.10;1.00;;;;;;4867888;29;20567;-45
2023/12/12 10:30:26;;;;;;;13.60;12.50;;;9.10;1.00;;;;;;4867980;29;20440;-43
2023/12/12 10:32:53;;;;;;;13.27;12.47;;;9.20;1.00;;;;;;4868562;29;20424;-46
2023/12/12 10:35:20;;;;;;;13.83;13.03;;;9.30;1.00;;;;;;4867923;29;20420;-47
2023/12/12 10:37:46;;;;;;;14.03;13.13;;;9.40;1.00;;;;;;4867816;29;20907;-47
2023/12/12 10:40:13;;;;;;;13.57;12.60;;;9.50;99.90;;;;;;4868048;29;20484;-47
2023/12/12 10:42:42;;;;;;;13.77;12.90;;;10.20;40.60;;;;;;4867716;29;20199;-44
2023/12/12 10:45:12;;;;;;;11.90;11.30;;;11.30;1.00;;;;;;4867649;29;20468;-45
2023/12/12 10:47:50;;;;;;;13.30;12.27;;;12.60;99.90;;;;;;4867451;29;20544;-44
2023/12/12 10:50:18;;;;;;;12.70;11.90;;;13.80;99.90;;;;;;4867833;29;20424;-45
2023/12/12 10:52:45;;;;;;;11.97;11.47;;;14.50;1.00;;;;;;4866148;29;20852;-46
2023/12/12 10:55:13;;;;;;;12.60;11.80;;;15.00;1.00;;;;;;4867705;29;20448;-44
2023/12/12 10:57:42;;;;;;;13.30;12.37;;;15.50;1.00;;;;;;4867690;29;20488;-46
2023/12/12 11:00:15;;;;;;;12.20;11.50;;;15.80;1.00;;;;;;4867733;29;20438;-45
2023/12/12 11:02:42;;;;;;;11.73;11.03;;;16.20;1.00;;;;;;4867577;29;20432;-48
2023/12/12 11:05:10;;;;;;;11.73;11.13;;;16.80;1.00;;;;;;4871835;29;20547;-44
2023/12/12 11:07:36;;;;;;;11.10;10.60;;;17.40;99.90;;;;;;4867282;29;20832;-44
2023/12/12 11:10:22;;;;;;;11.23;10.73;;;17.60;99.90;;;;;;4867386;29;20521;-44
2023/12/12 11:12:55;;;;;;;11.80;11.30;;;17.20;99.90;;;;;;4867496;29;20411;-48
2023/12/12 11:15:23;;;;;;;12.27;11.60;;;17.20;99.90;;;;;;4867957;29;20421;-48
2023/12/12 11:17:51;;;;;;;12.27;11.50;;;17.20;99.90;;;;;;4867483;29;20984;-45
2023/12/12 11:20:17;;;;;;;12.43;11.73;;;17.40;99.90;;;;;;4866081;29;20555;-44
2023/12/12 11:22:48;;;;;;;12.20;11.60;;;17.20;99.90;;;;;;4867643;29;20424;-44
2023/12/12 11:25:20;;;;;;;11.70;11.07;;;17.60;99.90;;;;;;4867165;29;20424;-45
2023/12/12 11:27:57;;;;;;;11.83;11.13;;;17.80;99.90;;;;;;4865472;29;20471;-45
2023/12/12 11:30:43;;;;;;;12.73;12.00;;;18.10;99.90;;;;;;4867400;29;20496;-44
2023/12/12 11:33:10;;;;;;;12.03;11.33;;;18.40;99.90;;;;;;4866006;29;20559;-45
2023/12/12 11:35:36;;;;;;;12.57;11.80;;;18.10;99.90;;;;;;4867281;29;20584;-47
2023/12/12 11:38:26;;;;;;;12.37;11.77;;;18.10;99.90;;;;;;4867384;29;20436;-45
2023/12/12 11:41:09;;;;;;;12.10;11.47;;;18.20;99.90;;;;;;4866958;29;20318;-44
2023/12/12 11:43:36;;;;;;;11.57;10.97;;;18.20;99.90;;;;;;4866473;29;20882;-45
2023/12/12 11:46:21;;;;;;;13.10;12.30;;;18.20;99.90;;;;;;4864957;29;20424;-45
2023/12/12 11:48:47;;;;;;;12.80;12.10;;;17.90;99.90;;;;;;4866529;29;20563;-45
2023/12/12 11:51:34;;;;;;;12.20;11.60;;;17.20;99.90;;;;;;4866400;29;20436;-45
2023/12/12 11:54:09;;;;;;;11.60;11.00;;;16.90;99.90;;;;;;4866525;29;20481;-45
2023/12/12 11:56:35;;;;;;;12.63;11.93;;;17.00;99.90;;;;;;4865236;29;20525;-44
2023/12/12 11:59:01;;;;;;;13.00;12.30;;;16.00;99.90;;;;;;4864542;29;20448;-47
2023/12/12 12:01:27;;;;;;;11.80;11.10;;;16.20;99.90;;;;;;4866863;29;20787;-48
2023/12/12 12:03:53;;;;;;;13.07;12.07;;;16.40;99.90;;;;;;4866277;29;20455;-47
2023/12/12 12:06:19;;;;;;;12.80;12.00;;;16.50;99.90;;;;;;4866332;29;20447;-48
2023/12/12 12:08:44;;;;;;;12.13;11.43;;;16.40;99.90;;;;;;4866406;29;20490;-45
2023/12/12 12:11:11;;;;;;;12.20;11.40;;;16.70;99.90;;;;;;4866707;29;20420;-47
2023/12/12 12:13:43;;;;;;;13.40;12.40;;;17.00;99.90;;;;;;4865953;29;20211;-47
2023/12/12 12:16:10;;;;;;;12.53;11.80;;;15.70;99.90;;;;;;4866087;29;20432;-44
2023/12/12 12:18:36;;;;;;;12.10;11.50;;;15.40;99.90;;;;;;4866335;29;20517;-44
2023/12/12 12:21:03;;;;;;;11.97;11.23;;;16.10;99.90;;;;;;4866489;29;20444;-47
2023/12/12 12:23:38;;;;;;;12.40;11.67;;;16.30;99.90;;;;;;4866215;29;20437;-43
2023/12/12 12:26:04;;;;;;;12.37;11.70;;;15.40;99.90;;;;;;4865577;29;20451;-43
2023/12/12 12:28:34;;;;;;;12.20;11.60;;;14.90;99.90;;;;;;4865433;29;20798;-44
2023/12/12 12:31:00;;;;;;;11.97;11.30;;;14.40;99.90;;;;;;4875396;29;20646;-44
2023/12/12 12:33:33;;;;;;;13.10;12.00;;;14.10;99.90;;;;;;4866158;29;20420;-43
2023/12/12 12:35:59;;;;;;;12.30;11.70;;;13.90;99.90;;;;;;4865840;29;20651;-48
2023/12/12 12:38:25;;;;;;;12.80;12.00;;;13.30;99.90;;;;;;4866129;29;21021;-43